createdAt,value
2022-11-12T00:01:32.406Z,3.67
2022-11-12T00:04:17.363Z,3.53
2022-11-12T00:07:02.508Z,2.80
2022-11-12T00:09:47.730Z,2.70
2022-11-12T00:12:33.318Z,2.40
2022-11-12T00:15:18.102Z,2.65
2022-11-12T00:18:03.956Z,2.72
2022-11-12T00:20:49.245Z,2.60
2022-11-12T00:23:34.571Z,2.50
2022-11-12T00:26:20.190Z,2.72
2022-11-12T00:29:05.437Z,2.85
2022-11-12T00:31:50.471Z,2.40
2022-11-12T00:34:36.052Z,2.55
2022-11-12T00:37:23.075Z,2.50
2022-11-12T00:40:09.423Z,2.75
2022-11-12T00:42:54.701Z,2.90
2022-11-12T00:45:39.993Z,3.00
2022-11-12T00:48:25.382Z,3.50
2022-11-12T00:51:10.880Z,2.90
2022-11-12T00:53:56.312Z,3.60
2022-11-12T00:56:41.647Z,2.95
2022-11-12T00:59:26.962Z,2.67
2022-11-12T01:02:11.775Z,2.63
2022-11-12T01:04:56.902Z,2.38
2022-11-12T01:07:42.007Z,2.40
2022-11-12T01:10:27.622Z,2.55
2022-11-12T01:13:12.638Z,2.58
2022-11-12T01:15:57.747Z,2.70
2022-11-12T01:18:44.033Z,2.97
2022-11-12T01:21:31.684Z,2.50
2022-11-12T01:24:16.881Z,2.90
2022-11-12T01:27:01.974Z,2.83
2022-11-12T01:29:46.875Z,3.08
2022-11-12T01:32:34.995Z,3.35
2022-11-12T01:35:20.163Z,2.70
2022-11-12T01:38:05.158Z,3.13
2022-11-12T01:40:50.011Z,2.78
2022-11-12T01:43:35.567Z,2.53
2022-11-12T01:46:27.870Z,2.90
2022-11-12T01:49:19.343Z,3.10
2022-11-12T01:52:31.467Z,3.03
2022-11-12T01:55:23.915Z,3.00
2022-11-12T01:58:15.552Z,3.33
2022-11-12T02:01:02.282Z,3.50
2022-11-12T02:03:47.526Z,3.80
2022-11-12T02:06:34.371Z,4.20
2022-11-12T02:09:19.571Z,4.77
2022-11-12T02:12:05.702Z,5.63
2022-11-12T02:14:50.475Z,3.58
2022-11-12T02:17:35.499Z,3.28
2022-11-12T02:20:20.515Z,2.72
2022-11-12T02:23:07.837Z,2.88
2022-11-12T02:25:52.859Z,3.10
2022-11-12T02:28:38.095Z,3.03
2022-11-12T02:31:23.111Z,3.00
2022-11-12T02:34:08.454Z,3.10
2022-11-12T02:36:53.896Z,2.45
2022-11-12T02:39:39.072Z,2.90
2022-11-12T02:42:23.986Z,2.70
2022-11-12T02:45:09.932Z,2.42
2022-11-12T02:47:54.798Z,2.33
2022-11-12T02:50:39.756Z,2.50
2022-11-12T02:53:24.848Z,2.50
2022-11-12T02:56:10.129Z,2.40
2022-11-12T02:58:55.195Z,2.95
2022-11-12T03:01:40.527Z,2.60
2022-11-12T03:04:25.469Z,2.35
2022-11-12T03:07:10.804Z,2.42
2022-11-12T03:09:55.787Z,2.25
2022-11-12T03:12:40.675Z,2.40
2022-11-12T03:15:27.245Z,2.78
2022-11-12T03:18:16.833Z,2.28
2022-11-12T03:21:01.811Z,2.35
2022-11-12T03:23:46.838Z,2.90
2022-11-12T03:26:35.792Z,2.42
2022-11-12T03:29:21.640Z,2.67
2022-11-12T03:32:07.168Z,2.13
2022-11-12T03:34:55.468Z,2.38
2022-11-12T03:37:40.407Z,2.35
2022-11-12T03:40:26.939Z,2.30
2022-11-12T03:43:12.318Z,2.00
2022-11-12T03:45:57.397Z,2.13
2022-11-12T03:48:42.621Z,2.40
2022-11-12T03:51:27.536Z,2.10
2022-11-12T03:54:13.101Z,2.35
2022-11-12T03:56:58.150Z,2.28
2022-11-12T03:59:43.139Z,2.40
2022-11-12T04:02:30.012Z,1.80
2022-11-12T04:05:34.077Z,2.73
2022-11-12T04:08:37.223Z,2.30
2022-11-12T04:11:22.364Z,2.42
2022-11-12T04:14:07.603Z,2.75
2022-11-12T04:17:11.099Z,2.45
2022-11-12T04:20:15.137Z,2.92
2022-11-12T04:23:00.192Z,2.40
2022-11-12T04:26:04.390Z,2.65
2022-11-12T04:29:08.341Z,2.53
2022-11-12T04:31:53.603Z,2.63
2022-11-12T04:34:38.543Z,2.53
2022-11-12T04:37:26.878Z,2.38
2022-11-12T04:40:33.863Z,2.80
2022-11-12T04:43:37.632Z,2.55
2022-11-12T04:46:22.931Z,2.00
2022-11-12T04:49:07.883Z,2.53
2022-11-12T04:52:04.922Z,2.88
2022-11-12T04:54:50.080Z,2.80
2022-11-12T04:57:35.552Z,2.88
2022-11-12T05:00:20.771Z,3.13
2022-11-12T05:03:05.966Z,3.67
2022-11-12T05:05:51.317Z,3.72
2022-11-12T05:08:36.585Z,3.40
2022-11-12T05:11:21.657Z,2.80
2022-11-12T05:14:07.087Z,2.72
2022-11-12T05:16:52.318Z,2.83
2022-11-12T05:19:37.692Z,2.90
2022-11-12T05:22:42.661Z,2.97
2022-11-12T05:25:27.587Z,3.20
2022-11-12T05:28:12.534Z,2.50
2022-11-12T05:30:57.504Z,3.00
2022-11-12T05:33:42.354Z,3.10
2022-11-12T05:36:27.341Z,3.38
2022-11-12T05:39:12.260Z,2.60
2022-11-12T05:42:12.483Z,2.65
2022-11-12T05:44:58.662Z,2.65
2022-11-12T05:47:43.752Z,2.83
2022-11-12T05:50:34.799Z,3.20
2022-11-12T05:53:25.401Z,3.40
2022-11-12T05:56:11.620Z,3.15
2022-11-12T05:58:57.427Z,3.22
2022-11-12T06:01:45.494Z,3.53
2022-11-12T06:04:30.367Z,4.00
2022-11-12T06:07:15.334Z,3.20
2022-11-12T06:10:00.749Z,3.35
2022-11-12T06:12:45.629Z,2.97
2022-11-12T06:15:32.882Z,2.85
2022-11-12T06:18:22.236Z,3.10
2022-11-12T06:21:19.421Z,3.83
2022-11-12T06:24:05.005Z,3.83
2022-11-12T06:26:50.607Z,4.40
2022-11-12T06:29:35.928Z,4.13
2022-11-12T06:32:21.087Z,4.47
2022-11-12T06:35:07.322Z,4.10
2022-11-12T06:37:52.193Z,4.82
2022-11-12T06:40:37.124Z,5.20
2022-11-12T06:43:21.928Z,5.20
2022-11-12T06:46:12.870Z,4.63
2022-11-12T06:48:57.840Z,5.05
2022-11-12T06:51:43.075Z,4.80
2022-11-12T06:54:27.961Z,5.68
2022-11-12T06:57:13.267Z,6.55
2022-11-12T06:59:58.381Z,6.20
2022-11-12T07:02:43.673Z,6.95
2022-11-12T07:05:29.107Z,5.30
2022-11-12T07:08:14.424Z,4.50
2022-11-12T07:10:59.510Z,4.68
2022-11-12T07:13:45.305Z,4.47
2022-11-12T07:16:30.558Z,4.18
2022-11-12T07:19:15.639Z,4.47
2022-11-12T07:22:00.833Z,4.35
2022-11-12T07:24:47.044Z,4.70
2022-11-12T07:27:32.324Z,4.72
2022-11-12T07:30:17.680Z,4.55
2022-11-12T07:33:02.854Z,4.88
2022-11-12T07:35:48.012Z,4.57
2022-11-12T07:38:35.972Z,5.28
2022-11-12T07:44:07.677Z,6.05
2022-11-12T07:46:52.929Z,8.70
2022-11-12T07:49:38.297Z,6.53
2022-11-12T07:52:23.871Z,5.88
2022-11-12T07:55:09.191Z,5.60
2022-11-12T07:57:59.350Z,6.75
2022-11-12T08:00:45.756Z,5.75
2022-11-12T08:03:31.072Z,5.30
2022-11-12T08:06:16.401Z,5.50
2022-11-12T08:09:04.736Z,4.20
2022-11-12T08:11:49.891Z,4.57
2022-11-12T08:14:34.964Z,4.55
2022-11-12T08:17:21.089Z,4.18
2022-11-12T08:20:07.571Z,4.78
2022-11-12T08:22:53.112Z,4.50
2022-11-12T08:25:38.449Z,4.22
2022-11-12T08:28:24.086Z,4.28
2022-11-12T08:31:12.606Z,4.00
2022-11-12T08:33:57.899Z,4.13
2022-11-12T08:36:43.273Z,4.35
2022-11-12T08:39:29.693Z,3.78
2022-11-12T08:42:14.925Z,3.60
2022-11-12T08:45:00.322Z,3.83
2022-11-12T08:47:46.401Z,4.20
2022-11-12T08:50:31.773Z,3.85
2022-11-12T08:53:17.186Z,3.47
2022-11-12T08:56:02.671Z,4.15
2022-11-12T08:58:47.823Z,5.03
2022-11-12T09:01:33.008Z,4.70
2022-11-12T09:04:18.603Z,4.20
2022-11-12T09:07:05.208Z,4.55
2022-11-12T09:09:52.043Z,6.40
2022-11-12T09:12:37.230Z,4.70
2022-11-12T09:15:37.474Z,5.63
2022-11-12T09:18:23.388Z,5.90
2022-11-12T09:21:16.418Z,5.25
2022-11-12T09:24:01.543Z,6.70
2022-11-12T09:26:48.028Z,6.82
2022-11-12T09:29:33.452Z,6.88
2022-11-12T09:32:18.940Z,7.88
2022-11-12T09:35:04.428Z,8.00
2022-11-12T09:37:49.408Z,8.90
2022-11-12T09:40:53.959Z,8.18
2022-11-12T09:43:56.898Z,8.00
2022-11-12T09:46:47.163Z,9.20
2022-11-12T09:49:51.543Z,8.50
2022-11-12T09:52:39.248Z,8.85
2022-11-12T09:55:34.439Z,8.20
2022-11-12T09:58:20.007Z,8.88
2022-11-12T10:01:18.049Z,8.13
2022-11-12T10:04:17.623Z,8.88
2022-11-12T10:07:27.653Z,8.93
2022-11-12T10:10:24.150Z,9.82
2022-11-12T10:13:15.229Z,10.82
2022-11-12T10:16:42.861Z,9.98
2022-11-12T10:19:58.363Z,9.27
2022-11-12T10:22:58.762Z,8.93
2022-11-12T10:25:50.189Z,9.07
2022-11-12T10:28:44.028Z,10.48
2022-11-12T10:31:29.217Z,9.45
2022-11-12T10:34:17.891Z,8.85
2022-11-12T10:37:40.984Z,8.93
2022-11-12T10:40:28.389Z,10.52
2022-11-12T10:43:16.806Z,10.15
2022-11-12T10:46:21.109Z,10.00
2022-11-12T10:49:15.916Z,11.02
2022-11-12T10:52:01.287Z,11.88
2022-11-12T10:54:49.757Z,9.85
2022-11-12T10:57:38.066Z,9.88
2022-11-12T11:00:23.740Z,10.60
2022-11-12T11:03:21.088Z,12.32
2022-11-12T11:06:20.172Z,13.23
2022-11-12T11:09:14.449Z,13.40
2022-11-12T11:12:00.026Z,12.88
2022-11-12T11:14:45.598Z,13.25
2022-11-12T11:17:30.910Z,13.38
2022-11-12T11:20:48.399Z,12.98
2022-11-12T11:23:57.330Z,17.30
2022-11-12T11:27:10.165Z,19.35
2022-11-12T11:29:55.409Z,17.30
2022-11-12T11:32:40.320Z,13.20
2022-11-12T11:35:47.946Z,12.23
2022-11-12T11:38:46.811Z,13.73
2022-11-12T11:41:57.846Z,16.10
2022-11-12T11:44:56.268Z,14.75
2022-11-12T11:48:01.254Z,13.57
2022-11-12T11:51:02.804Z,13.15
2022-11-12T11:54:12.937Z,12.60
2022-11-12T11:57:00.315Z,12.30
2022-11-12T12:00:04.851Z,16.70
2022-11-12T12:03:37.954Z,13.70
2022-11-12T12:06:28.608Z,13.40
2022-11-12T12:09:21.087Z,12.55
2022-11-12T12:12:22.121Z,13.00
2022-11-12T12:15:35.445Z,12.57
2022-11-12T12:18:36.701Z,12.23
2022-11-12T12:21:23.975Z,12.43
2022-11-12T12:24:22.919Z,13.40
2022-11-12T12:27:17.311Z,13.63
2022-11-12T12:30:06.785Z,13.80
2022-11-12T12:32:57.017Z,11.93
2022-11-12T12:36:15.539Z,15.25
2022-11-12T12:39:25.111Z,13.15
2022-11-12T12:42:22.778Z,14.63
2022-11-12T12:45:38.246Z,13.85
2022-11-12T12:48:29.787Z,15.65
2022-11-12T12:51:14.886Z,15.73
2022-11-12T12:54:00.484Z,15.68
2022-11-12T12:56:48.000Z,15.18
2022-11-12T12:59:33.411Z,15.50
2022-11-12T13:02:23.237Z,15.68
2022-11-12T13:05:28.705Z,17.48
2022-11-12T13:08:22.695Z,17.33
2022-11-12T13:11:08.479Z,17.17
2022-11-12T13:13:53.639Z,18.60
2022-11-12T13:16:56.572Z,17.55
2022-11-12T13:20:10.491Z,18.08
2022-11-12T13:22:55.556Z,17.88
2022-11-12T13:25:40.711Z,17.75
2022-11-12T13:28:26.302Z,15.45
2022-11-12T13:31:28.026Z,16.00
2022-11-12T13:34:22.123Z,14.77
2022-11-12T13:37:20.173Z,14.27
2022-11-12T13:40:11.832Z,13.80
2022-11-12T13:43:09.928Z,13.90
2022-11-12T13:46:02.599Z,15.82
2022-11-12T13:48:55.655Z,14.88
2022-11-12T13:51:45.199Z,15.63
2022-11-12T13:54:36.259Z,16.33
2022-11-12T13:57:23.893Z,15.75
2022-11-12T14:00:20.579Z,16.48
2022-11-12T14:03:07.844Z,17.75
2022-11-12T14:05:54.010Z,15.35
2022-11-12T14:09:06.543Z,16.58
2022-11-12T14:12:23.928Z,16.85
2022-11-12T14:15:24.796Z,15.85
2022-11-12T14:18:55.052Z,15.93
2022-11-12T14:21:40.328Z,17.80
2022-11-12T14:24:25.637Z,16.30
2022-11-12T14:27:28.968Z,17.30
2022-11-12T14:30:23.280Z,17.30
2022-11-12T14:33:10.910Z,16.88
2022-11-12T14:36:18.303Z,17.48
2022-11-12T14:39:03.503Z,17.77
2022-11-12T14:41:50.775Z,18.25
2022-11-12T14:44:38.060Z,18.65
2022-11-12T14:47:24.149Z,20.08
2022-11-12T14:50:26.047Z,19.42
2022-11-12T14:53:25.061Z,19.70
2022-11-12T14:56:35.936Z,20.25
2022-11-12T14:59:21.206Z,21.17
2022-11-12T15:02:30.445Z,22.88
2022-11-12T15:05:21.052Z,21.00
2022-11-12T15:08:11.538Z,23.13
2022-11-12T15:10:58.017Z,22.63
2022-11-12T15:13:44.225Z,21.85
2022-11-12T15:16:43.049Z,21.00
2022-11-12T15:19:29.129Z,22.05
2022-11-12T15:22:22.817Z,22.73
2022-11-12T15:25:31.393Z,23.50
2022-11-12T15:28:25.274Z,24.85
2022-11-12T15:31:19.887Z,22.45
2022-11-12T15:34:39.212Z,21.15
2022-11-12T15:37:27.447Z,27.25
2022-11-12T15:40:18.671Z,24.00
2022-11-12T15:43:13.485Z,24.67
2022-11-12T15:45:58.811Z,25.25
2022-11-12T15:48:44.203Z,27.05
2022-11-12T15:51:29.464Z,27.77
2022-11-12T15:54:14.646Z,18.48
2022-11-12T15:56:59.707Z,17.25
2022-11-12T15:59:46.108Z,16.85
2022-11-12T16:02:31.825Z,18.17
2022-11-12T16:05:18.268Z,19.50
2022-11-12T16:08:03.356Z,18.35
2022-11-12T16:10:49.423Z,17.25
2022-11-12T16:13:34.967Z,17.77
2022-11-12T16:16:19.935Z,17.10
2022-11-12T16:19:09.277Z,15.70
2022-11-12T16:21:54.526Z,17.23
2022-11-12T16:24:40.330Z,17.88
2022-11-12T16:27:25.439Z,16.50
2022-11-12T16:30:31.140Z,16.75
2022-11-12T16:33:16.067Z,16.20
2022-11-12T16:36:01.051Z,16.88
2022-11-12T16:38:47.042Z,18.35
2022-11-12T16:41:32.467Z,19.90
2022-11-12T16:44:17.636Z,19.75
2022-11-12T16:47:04.158Z,18.42
2022-11-12T16:49:49.155Z,16.77
2022-11-12T16:52:35.327Z,17.30
2022-11-12T16:55:21.393Z,17.63
2022-11-12T16:58:06.335Z,24.77
2022-11-12T17:00:52.549Z,20.08
2022-11-12T17:03:37.763Z,18.05
2022-11-12T17:06:39.361Z,17.42
2022-11-12T17:09:24.549Z,17.60
2022-11-12T17:12:09.805Z,17.48
2022-11-12T17:14:55.164Z,16.23
2022-11-12T17:17:40.985Z,18.00
2022-11-12T17:20:27.516Z,17.48
2022-11-12T17:23:12.532Z,17.92
2022-11-12T17:26:06.704Z,19.13
2022-11-12T17:28:57.721Z,19.65
2022-11-12T17:31:50.109Z,24.52
2022-11-12T17:34:35.415Z,21.25
2022-11-12T17:37:20.614Z,21.77
2022-11-12T17:40:06.608Z,18.98
2022-11-12T17:42:51.805Z,19.65
2022-11-12T17:45:36.853Z,19.08
2022-11-12T17:48:22.374Z,16.30
2022-11-12T17:51:11.939Z,16.58
2022-11-12T17:53:57.057Z,17.10
2022-11-12T17:56:42.231Z,17.33
2022-11-12T17:59:27.329Z,16.67
2022-11-12T18:02:12.580Z,16.90
2022-11-12T18:04:57.529Z,16.92
2022-11-12T18:07:42.346Z,16.95
2022-11-12T18:10:29.071Z,16.50
2022-11-12T18:13:14.316Z,19.15
2022-11-12T18:16:00.504Z,18.27
2022-11-12T18:18:46.316Z,18.25
2022-11-12T18:21:31.559Z,16.60
2022-11-12T18:24:18.199Z,17.70
2022-11-12T18:27:03.583Z,17.93
2022-11-12T18:29:48.528Z,18.67
2022-11-12T18:32:33.860Z,18.17
2022-11-12T18:35:18.813Z,16.88
2022-11-12T18:38:04.115Z,17.88
2022-11-12T18:40:49.392Z,16.45
2022-11-12T18:43:36.612Z,16.98
2022-11-12T18:46:22.558Z,17.70
2022-11-12T18:49:07.706Z,16.83
2022-11-12T18:51:52.973Z,18.70
2022-11-12T18:54:38.327Z,17.10
2022-11-12T18:57:23.830Z,15.68
2022-11-12T19:00:09.673Z,15.88
2022-11-12T19:02:55.146Z,17.00
2022-11-12T19:05:41.982Z,15.80
2022-11-12T19:08:27.368Z,17.65
2022-11-12T19:11:14.217Z,15.43
2022-11-12T19:13:59.266Z,15.23
2022-11-12T19:16:45.137Z,15.00
2022-11-12T19:19:30.587Z,14.50
2022-11-12T19:22:16.168Z,14.90
2022-11-12T19:25:03.907Z,14.15
2022-11-12T19:27:48.981Z,37.53
2022-11-12T19:30:37.267Z,15.00
2022-11-12T19:33:23.033Z,15.63
2022-11-12T19:36:11.768Z,15.20
2022-11-12T19:38:58.801Z,15.30
2022-11-12T19:41:44.374Z,16.48
2022-11-12T19:44:30.329Z,20.35
2022-11-12T19:47:16.326Z,19.73
2022-11-12T19:50:03.961Z,16.90
2022-11-12T19:52:52.052Z,16.58
2022-11-12T19:55:39.846Z,15.13
2022-11-12T19:58:25.825Z,11.57
2022-11-12T20:01:14.431Z,9.60
2022-11-12T20:03:59.815Z,9.95
2022-11-12T20:06:45.429Z,11.13
2022-11-12T20:09:31.997Z,10.80
2022-11-12T20:12:16.990Z,12.25
2022-11-12T20:15:02.260Z,13.50
2022-11-12T20:17:47.657Z,12.57
2022-11-12T20:20:33.621Z,12.65
2022-11-12T20:23:18.802Z,11.18
2022-11-12T20:26:07.986Z,12.18
2022-11-12T20:28:53.855Z,16.45
2022-11-12T20:31:38.925Z,21.50
2022-11-12T20:34:24.156Z,10.40
2022-11-12T20:37:10.017Z,8.52
2022-11-12T20:39:56.304Z,8.13
2022-11-12T20:42:41.550Z,7.65
2022-11-12T20:45:27.120Z,9.40
2022-11-12T20:48:12.532Z,21.90
2022-11-12T20:51:25.850Z,16.08
2022-11-12T20:54:11.362Z,13.50
2022-11-12T20:56:56.709Z,25.90
2022-11-12T20:59:43.121Z,14.25
2022-11-12T21:02:28.222Z,18.05
2022-11-12T21:05:13.901Z,12.60
2022-11-12T21:07:58.834Z,17.02
2022-11-12T21:10:49.066Z,17.23
2022-11-12T21:13:35.471Z,22.85
2022-11-12T21:16:20.766Z,13.00
2022-11-12T21:19:06.143Z,12.65
2022-11-12T21:21:51.724Z,10.95
2022-11-12T21:24:37.519Z,9.10
2022-11-12T21:27:22.873Z,8.70
2022-11-12T21:30:08.697Z,9.95
2022-11-12T21:32:53.520Z,9.45
2022-11-12T21:35:39.099Z,9.35
2022-11-12T21:38:26.188Z,11.63
2022-11-12T21:41:14.656Z,10.60
2022-11-12T21:43:59.768Z,11.25
2022-11-12T21:46:45.425Z,11.38
2022-11-12T21:49:31.009Z,10.77
2022-11-12T21:52:16.359Z,10.27
2022-11-12T21:55:01.481Z,10.93
2022-11-12T21:57:46.572Z,12.45
2022-11-12T22:00:47.113Z,10.45
2022-11-12T22:03:32.565Z,10.13
2022-11-12T22:06:19.262Z,10.52
2022-11-12T22:09:04.374Z,10.73
2022-11-12T22:11:49.325Z,9.27
2022-11-12T22:14:34.348Z,10.70
2022-11-12T22:17:19.229Z,10.82
2022-11-12T22:20:05.013Z,8.90
2022-11-12T22:22:51.440Z,8.68
2022-11-12T22:25:36.564Z,8.80
2022-11-12T22:28:21.728Z,9.95
2022-11-12T22:31:12.319Z,8.45
2022-11-12T22:33:58.716Z,8.55
2022-11-12T22:36:43.963Z,7.90
2022-11-12T22:39:29.194Z,7.00
2022-11-12T22:42:14.222Z,7.38
2022-11-12T22:44:58.975Z,6.95
2022-11-12T22:47:43.908Z,10.35
2022-11-12T22:50:29.124Z,10.82
2022-11-12T22:53:14.438Z,10.70
2022-11-12T22:56:07.711Z,9.95
2022-11-12T22:58:53.660Z,10.27
2022-11-12T23:01:38.954Z,10.80
2022-11-12T23:04:24.192Z,19.45
2022-11-12T23:07:09.258Z,11.60
2022-11-12T23:09:54.368Z,9.32
2022-11-12T23:12:39.271Z,11.23
2022-11-12T23:15:24.074Z,9.25
2022-11-12T23:18:09.387Z,8.85
2022-11-12T23:20:54.679Z,12.52
2022-11-12T23:23:40.205Z,11.10
2022-11-12T23:26:27.448Z,11.55
2022-11-12T23:29:12.729Z,9.57
2022-11-12T23:31:57.872Z,10.85
2022-11-12T23:34:42.711Z,13.50
2022-11-12T23:37:27.629Z,9.93
2022-11-12T23:40:12.511Z,10.93
2022-11-12T23:42:57.794Z,9.57
2022-11-12T23:45:42.802Z,9.38
2022-11-12T23:48:28.256Z,11.43
2022-11-12T23:51:17.385Z,9.57
2022-11-12T23:54:02.277Z,8.07
2022-11-12T23:56:47.225Z,10.18
2022-11-12T23:59:32.245Z,9.02
